Time;durP1;ratioP1;P1;durP2;ratioP2;P2;SDS_P1;SDS_P2;PMS_P1;PMS_P2;Temp;Humidity;BMP_temperature;BMP_pressure;BME280_temperature;BME280_humidity;BME280_pressure;Samples;Min_cycle;Max_cycle;Signal;HPM_P1;HPM_P2
2024/02/16 00:00:59;;;;;;;;;;;;;;;10.69;100.00;100876.16;5096134;28;19927;-76
2024/02/16 00:03:25;;;;;;;;;;;;;;;10.67;100.00;100878.00;5097626;28;19916;-76
2024/02/16 00:05:51;;;;;;;;;;;;;;;10.66;100.00;100872.81;5097296;28;19920;-76
2024/02/16 00:08:17;;;;;;;;;;;;;;;10.67;100.00;100874.53;5097514;28;19991;-76
2024/02/16 00:10:42;;;;;;;;;;;;;;;10.65;100.00;100881.59;5097074;28;19920;-76
2024/02/16 00:13:07;;;;;;;;;;;;;;;10.64;100.00;100883.38;5097179;28;19927;-76
2024/02/16 00:15:33;;;;;;;;;;;;;;;10.61;100.00;100882.66;5097191;28;19982;-76
2024/02/16 00:17:58;;;;;;;;;;;;;;;10.61;100.00;100880.88;5097470;28;20093;-76
2024/02/16 00:20:24;;;;;;;;;;;;;;;10.61;100.00;100874.78;5097418;28;19983;-76
2024/02/16 00:22:49;;;;;;;;;;;;;;;10.57;100.00;100876.69;5097679;28;20093;-76
2024/02/16 00:25:15;;;;;;;;;;;;;;;10.56;100.00;100875.81;5097716;28;20119;-76
2024/02/16 00:27:40;;;;;;;;;;;;;;;10.56;100.00;100872.34;5097572;28;19920;-76
2024/02/16 00:30:06;;;;;;;;;;;;;;;10.57;100.00;100877.53;5097036;28;19923;-76
2024/02/16 00:32:31;;;;;;;;;;;;;;;10.55;100.00;100871.50;5096847;28;19920;-76
2024/02/16 00:34:57;;;;;;;;;;;;;;;10.55;100.00;100876.72;5097308;28;19920;-76
2024/02/16 00:37:24;;;;;;;;;;;;;;;10.53;100.00;100870.72;5096988;28;19991;-76
2024/02/16 00:39:49;;;;;;;;;;;;;;;10.53;100.00;100867.22;5096491;28;19947;-76
2024/02/16 00:42:14;;;;;;;;;;;;;;;10.50;100.00;100868.19;5097571;28;19983;-76
2024/02/16 00:44:40;;;;;;;;;;;;;;;10.51;100.00;100861.19;5096962;28;19916;-76
2024/02/16 00:47:05;;;;;;;;;;;;;;;10.53;100.00;100857.63;5096648;28;20040;-76
2024/02/16 00:49:31;;;;;;;;;;;;;;;10.55;100.00;100868.00;5096735;28;20006;-76
2024/02/16 00:51:56;;;;;;;;;;;;;;;10.52;100.00;100861.13;5096623;28;19927;-76
2024/02/16 00:54:22;;;;;;;;;;;;;;;10.49;100.00;100848.16;5097449;28;19927;-76
2024/02/16 00:56:47;;;;;;;;;;;;;;;10.50;100.00;100852.50;5096605;28;19920;-76
2024/02/16 00:59:12;;;;;;;;;;;;;;;10.49;100.00;100848.16;5096314;28;19978;-76
2024/02/16 01:01:38;;;;;;;;;;;;;;;10.49;100.00;100839.47;5096192;28;19920;-76
2024/02/16 01:04:04;;;;;;;;;;;;;;;10.48;100.00;100830.75;5096572;28;19951;-76
2024/02/16 01:06:29;;;;;;;;;;;;;;;10.49;100.00;100842.06;5096635;28;20279;-76
2024/02/16 01:08:54;;;;;;;;;;;;;;;10.47;100.00;100849.16;5095980;28;19928;-76
2024/02/16 01:11:19;;;;;;;;;;;;;;;10.46;100.00;100858.78;5096657;28;19955;-76
2024/02/16 01:13:48;;;;;;;;;;;;;;;10.46;100.00;100848.31;5096255;28;19924;-76
2024/02/16 01:16:13;;;;;;;;;;;;;;;10.44;100.00;100841.41;5096500;28;19920;-76
2024/02/16 01:18:39;;;;;;;;;;;;;;;10.42;100.00;100833.59;5096482;28;19920;-76
2024/02/16 01:21:04;;;;;;;;;;;;;;;10.41;100.00;100837.16;5095791;28;19927;-76
2024/02/16 01:23:30;;;;;;;;;;;;;;;10.40;100.00;100838.06;5095832;28;19919;-76
2024/02/16 01:25:55;;;;;;;;;;;;;;;10.40;100.00;100824.97;5095634;28;20022;-76
2024/02/16 01:28:21;;;;;;;;;;;;;;;10.39;100.00;100802.34;5096313;28;19931;-76
2024/02/16 01:30:46;;;;;;;;;;;;;;;10.39;100.00;100804.94;5077797;28;19916;-76
2024/02/16 01:33:11;;;;;;;;;;;;;;;10.37;100.00;100825.94;5095573;28;19927;-76
2024/02/16 01:35:36;;;;;;;;;;;;;;;10.36;100.00;100832.09;5096487;28;19923;-76
2024/02/16 01:38:02;;;;;;;;;;;;;;;10.35;100.00;100830.41;5096249;28;20239;-76
2024/02/16 01:40:28;;;;;;;;;;;;;;;10.33;100.00;100836.59;5096118;28;19908;-76
2024/02/16 01:42:53;;;;;;;;;;;;;;;10.32;100.00;100827.91;5096067;28;19999;-76
2024/02/16 01:45:19;;;;;;;;;;;;;;;10.30;100.00;100829.69;5096079;28;19995;-76
2024/02/16 01:47:46;;;;;;;;;;;;;;;10.27;100.00;100828.97;5096012;28;19947;-76
2024/02/16 01:50:12;;;;;;;;;;;;;;;10.28;100.00;100823.66;5095608;28;19916;-76
2024/02/16 01:52:37;;;;;;;;;;;;;;;10.28;100.00;100821.06;5095652;28;19928;-76
2024/02/16 01:55:04;;;;;;;;;;;;;;;10.27;100.00;100813.25;5095309;28;19927;-76
2024/02/16 01:57:29;;;;;;;;;;;;;;;10.27;100.00;100811.47;5095378;28;19920;-77
2024/02/16 01:59:55;;;;;;;;;;;;;;;10.26;100.00;100819.38;5095450;28;19927;-76
2024/02/16 02:02:20;;;;;;;;;;;;;;;10.25;100.00;100813.31;5095831;28;19920;-76
2024/02/16 02:04:45;;;;;;;;;;;;;;;10.25;100.00;100817.69;5095369;28;20150;-76
2024/02/16 02:07:14;;;;;;;;;;;;;;;10.25;100.00;100817.69;5095169;28;19959;-76
2024/02/16 02:09:39;;;;;;;;;;;;;;;10.25;100.00;100828.19;5095107;28;20149;-76
2024/02/16 02:12:05;;;;;;;;;;;;;;;10.26;100.00;100827.25;5094273;28;20176;-76
2024/02/16 02:14:30;;;;;;;;;;;;;;;10.24;100.00;100821.22;5076707;28;20251;-76
2024/02/16 02:16:56;;;;;;;;;;;;;;;10.23;100.00;100825.63;5095363;28;19932;-76
2024/02/16 02:19:21;;;;;;;;;;;;;;;10.21;100.00;100821.38;5077399;28;19927;-76
2024/02/16 02:21:46;;;;;;;;;;;;;;;10.16;100.00;100816.28;5095507;28;19916;-76
2024/02/16 02:24:11;;;;;;;;;;;;;;;10.16;100.00;100809.28;5095490;28;20120;-76
2024/02/16 02:26:37;;;;;;;;;;;;;;;10.15;100.00;100810.22;5095245;28;19983;-76
2024/02/16 02:29:03;;;;;;;;;;;;;;;10.15;100.00;100809.34;5076815;28;19991;-76
2024/02/16 02:31:28;;;;;;;;;;;;;;;10.14;100.00;100807.66;5095104;28;19916;-76
2024/02/16 02:33:53;;;;;;;;;;;;;;;10.13;100.00;100801.59;5095336;28;19926;-76
2024/02/16 02:36:19;;;;;;;;;;;;;;;10.12;100.00;100806.88;5077034;28;19920;-76
2024/02/16 02:38:44;;;;;;;;;;;;;;;10.12;100.00;100805.09;5095367;28;19920;-76
2024/02/16 02:41:09;;;;;;;;;;;;;;;10.14;100.00;100808.50;5094914;28;19924;-76
2024/02/16 02:43:34;;;;;;;;;;;;;;;10.14;100.00;100803.28;5094841;28;20230;-76
2024/02/16 02:46:00;;;;;;;;;;;;;;;10.17;100.00;100797.06;5093899;28;20291;-76
2024/02/16 02:48:25;;;;;;;;;;;;;;;10.19;100.00;100800.47;5094788;28;19924;-76
2024/02/16 02:50:50;;;;;;;;;;;;;;;10.18;100.00;100802.22;5094679;28;19947;-76
2024/02/16 02:53:16;;;;;;;;;;;;;;;10.16;100.00;100797.97;5095283;28;19920;-76
2024/02/16 02:55:41;;;;;;;;;;;;;;;10.18;100.00;100793.53;5093358;28;19912;-76
2024/02/16 02:58:06;;;;;;;;;;;;;;;10.18;100.00;100788.28;5093582;28;19920;-76
2024/02/16 03:00:31;;;;;;;;;;;;;;;10.17;100.00;100784.84;5093623;28;19978;-76
2024/02/16 03:02:57;;;;;;;;;;;;;;;10.17;100.00;100771.75;5097386;28;19919;-76
2024/02/16 03:05:22;;;;;;;;;;;;;;;10.18;100.00;100778.66;5098766;28;19957;-76
2024/02/16 03:07:47;;;;;;;;;;;;;;;10.21;100.00;100780.34;5099147;28;20258;-76
2024/02/16 03:10:14;;;;;;;;;;;;;;;10.24;100.00;100768.88;5080341;28;19920;-76
2024/02/16 03:12:42;;;;;;;;;;;;;;;10.25;100.00;100765.34;5098945;28;19948;-76
2024/02/16 03:15:07;;;;;;;;;;;;;;;10.21;100.00;100777.72;5098731;28;19944;-76
2024/02/16 03:17:33;;;;;;;;;;;;;;;10.24;100.00;100766.25;5099444;28;19966;-76
2024/02/16 03:19:58;;;;;;;;;;;;;;;10.24;100.00;100775.00;5099714;28;20118;-76
2024/02/16 03:22:23;;;;;;;;;;;;;;;10.24;100.00;100768.88;5099500;28;19927;-76
2024/02/16 03:24:48;;;;;;;;;;;;;;;10.27;100.00;100768.75;5098685;28;19920;-76
2024/02/16 03:27:14;;;;;;;;;;;;;;;10.27;100.00;100768.75;5099605;28;19930;-76
2024/02/16 03:29:40;;;;;;;;;;;;;;;10.26;100.00;100767.03;5099446;28;19920;-76
2024/02/16 03:32:05;;;;;;;;;;;;;;;10.27;100.00;100774.00;5093874;28;19920;-76
2024/02/16 03:34:30;;;;;;;;;;;;;;;10.28;100.00;100775.72;5096761;28;19924;-76
2024/02/16 03:36:56;;;;;;;;;;;;;;;10.27;100.00;100772.22;5080639;28;20111;-76
2024/02/16 03:39:22;;;;;;;;;;;;;;;10.27;100.00;100764.38;5099460;28;20168;-76
2024/02/16 03:41:48;;;;;;;;;;;;;;;10.24;100.00;100761.91;5097395;28;19920;-76
2024/02/16 03:44:14;;;;;;;;;;;;;;;10.25;100.00;100760.97;5096883;28;19923;-76
2024/02/16 03:46:39;;;;;;;;;;;;;;;10.26;100.00;100762.69;5098565;28;19916;-76
2024/02/16 03:49:04;;;;;;;;;;;;;;;10.24;100.00;100764.50;5080646;28;19954;-76
2024/02/16 03:51:30;;;;;;;;;;;;;;;10.26;100.00;100759.19;5096842;28;19916;-76
2024/02/16 03:53:55;;;;;;;;;;;;;;;10.26;100.00;100769.66;5097796;28;19916;-76
2024/02/16 03:56:20;;;;;;;;;;;;;;;10.26;100.00;100770.53;5099106;28;19923;-76
2024/02/16 03:58:46;;;;;;;;;;;;;;;10.22;100.00;100774.16;5081121;28;19916;-76
2024/02/16 04:01:11;;;;;;;;;;;;;;;10.19;100.00;100769.06;5096315;28;19920;-76
2024/02/16 04:03:37;;;;;;;;;;;;;;;10.21;100.00;100777.72;5079138;28;19942;-76
2024/02/16 04:06:04;;;;;;;;;;;;;;;10.24;100.00;100774.09;5080573;28;20145;-76
2024/02/16 04:08:29;;;;;;;;;;;;;;;10.24;100.00;100774.09;5098169;28;19919;-76
2024/02/16 04:10:54;;;;;;;;;;;;;;;10.23;100.00;100783.72;5095990;28;19914;-76
2024/02/16 06:32:03;;;;;;;;;;;;;;;10.16;100.00;100824.16;5045588;28;19925;-77
2024/02/16 06:34:29;;;;;;;;;;;;;;;10.17;100.00;100831.09;5048600;28;20154;-77
2024/02/16 06:36:54;;;;;;;;;;;;;;;10.16;100.00;100832.84;5046578;28;19927;-78
2024/02/16 06:39:20;;;;;;;;;;;;;;;10.16;100.00;100835.47;5040960;28;19971;-77
2024/02/16 06:41:46;;;;;;;;;;;;;;;10.15;100.00;100840.75;5036461;28;19921;-77
2024/02/16 06:44:12;;;;;;;;;;;;;;;10.19;100.00;100850.22;5035449;28;20230;-77
2024/02/16 06:46:37;;;;;;;;;;;;;;;10.20;100.00;100846.66;5051622;28;19909;-78
2024/02/16 06:49:02;;;;;;;;;;;;;;;10.21;100.00;100847.53;5040656;28;20127;-78
2024/02/16 06:51:28;;;;;;;;;;;;;;;10.23;100.00;100853.56;5043259;28;20297;-78
2024/02/16 06:53:54;;;;;;;;;;;;;;;10.23;100.00;100848.31;5049731;28;20242;-78
2024/02/16 06:56:19;;;;;;;;;;;;;;;10.24;100.00;100850.88;5050486;28;19919;-78
2024/02/16 06:58:45;;;;;;;;;;;;;;;10.26;100.00;100851.69;5050731;28;20285;-77
2024/02/16 07:01:10;;;;;;;;;;;;;;;10.28;100.00;100852.47;5053701;28;19974;-77
2024/02/16 07:03:38;;;;;;;;;;;;;;;10.31;100.00;100865.44;5054295;28;19921;-78
2024/02/16 07:06:04;;;;;;;;;;;;;;;10.32;100.00;100868.94;5048886;28;20225;-78
2024/02/16 07:08:29;;;;;;;;;;;;;;;10.34;100.00;100881.03;5047320;28;19957;-78
2024/02/16 07:10:55;;;;;;;;;;;;;;;10.34;100.00;100880.19;5063074;28;20186;-78
2024/02/16 07:13:22;;;;;;;;;;;;;;;10.35;100.00;100887.13;5067548;28;19927;-77
2024/02/16 07:15:47;;;;;;;;;;;;;;;10.35;100.00;100879.25;5032857;28;19956;-78
2024/02/16 07:18:12;;;;;;;;;;;;;;;10.34;100.00;100888.91;5051114;28;19916;-78
2024/02/16 07:20:38;;;;;;;;;;;;;;;10.34;100.00;100899.38;5050060;28;19999;-78
2024/02/16 07:23:03;;;;;;;;;;;;;;;10.37;100.00;100907.09;5040528;28;19927;-77
2024/02/16 07:25:28;;;;;;;;;;;;;;;10.37;100.00;100906.25;5065342;28;19920;-77
2024/02/16 07:27:54;;;;;;;;;;;;;;;10.37;100.00;100914.97;5058346;28;20223;-78
2024/02/16 07:30:19;;;;;;;;;;;;;;;10.36;100.00;100913.25;5044908;28;20165;-77
2024/02/16 07:32:48;;;;;;;;;;;;;;;10.37;100.00;100922.81;5055748;28;20167;-78
2024/02/16 07:35:14;;;;;;;;;;;;;;;10.40;100.00;100936.69;5051496;28;19925;-78
2024/02/16 07:37:39;;;;;;;;;;;;;;;10.42;100.00;100935.72;5059649;28;20467;-78
2024/02/16 07:40:06;;;;;;;;;;;;;;;10.43;100.00;100926.97;5059166;28;19921;-78
2024/02/16 07:42:31;;;;;;;;;;;;;;;10.48;100.00;100934.66;5047421;28;19962;-78
2024/02/16 07:44:56;;;;;;;;;;;;;;;10.53;100.00;100940.53;5064036;28;19921;-78
2024/02/16 07:47:22;;;;;;;;;;;;;;;10.56;100.00;100943.88;5054020;28;19992;-78
2024/02/16 07:49:47;;;;;;;;;;;;;;;10.57;100.00;100945.59;5056861;28;19921;-78
2024/02/16 07:52:12;;;;;;;;;;;;;;;10.59;100.00;100948.19;5064348;28;19921;-78
2024/02/16 07:54:37;;;;;;;;;;;;;;;10.64;100.00;100954.09;5074024;28;19939;-78
2024/02/16 07:57:04;;;;;;;;;;;;;;;10.67;100.00;100951.31;5056059;28;20273;-78
2024/02/16 07:59:29;;;;;;;;;;;;;;;10.71;100.00;100958.19;5056454;28;19924;-79
2024/02/16 08:01:54;;;;;;;;;;;;;;;10.74;100.00;100958.03;5059127;28;19947;-78
2024/02/16 08:04:19;;;;;;;;;;;;;;;10.74;100.00;100965.06;5067551;28;19952;-77
2024/02/16 08:06:45;;;;;;;;;;;;;;;10.78;100.00;100961.38;5056335;28;20338;-78
2024/02/16 08:09:10;;;;;;;;;;;;;;;10.78;100.00;100957.94;5059936;28;20254;-78
2024/02/16 08:11:35;;;;;;;;;;;;;;;10.78;100.00;100968.41;5057559;28;19920;-78
2024/02/16 08:14:01;;;;;;;;;;;;;;;10.78;100.00;100969.25;5064663;28;19925;-78
2024/02/16 08:16:27;;;;;;;;;;;;;;;10.80;100.00;100972.66;5056888;28;19912;-78
2024/02/16 08:18:53;;;;;;;;;;;;;;;10.85;100.00;100980.34;5069901;28;20207;-78
2024/02/16 08:21:18;;;;;;;;;;;;;;;10.84;100.00;100982.13;5055481;28;19921;-78
2024/02/16 08:23:43;;;;;;;;;;;;;;;10.86;100.00;100989.91;5076829;28;19921;-78
2024/02/16 08:26:08;;;;;;;;;;;;;;;10.86;100.00;100997.75;5039457;28;19921;-78
2024/02/16 08:28:34;;;;;;;;;;;;;;;10.86;100.00;101009.13;5050651;28;19935;-78
2024/02/16 08:30:59;;;;;;;;;;;;;;;10.87;100.00;101000.31;5046641;28;19920;-78
2024/02/16 08:33:24;;;;;;;;;;;;;;;10.87;100.00;101002.94;5081949;28;19975;-78
2024/02/16 08:35:50;;;;;;;;;;;;;;;10.86;100.00;101003.00;5060798;28;20238;-77
2024/02/16 08:38:16;;;;;;;;;;;;;;;10.84;100.00;101000.47;5054607;28;19927;-78
2024/02/16 08:40:41;;;;;;;;;;;;;;;10.83;100.00;101003.97;5087230;28;19947;-78
2024/02/16 08:43:09;;;;;;;;;;;;;;;10.85;100.00;101003.94;5053467;28;20866;-78
2024/02/16 08:45:34;;;;;;;;;;;;;;;10.86;100.00;101014.34;5055423;28;19930;-78
2024/02/16 08:48:02;;;;;;;;;;;;;;;10.87;100.00;101023.06;5049315;28;19924;-78
2024/02/16 08:50:27;;;;;;;;;;;;;;;10.88;100.00;101041.34;5053375;28;19923;-78
2024/02/16 08:52:53;;;;;;;;;;;;;;;10.89;100.00;101037.78;5051266;28;19994;-78
2024/02/16 08:55:18;;;;;;;;;;;;;;;10.92;100.00;101045.53;5055056;28;19927;-78
2024/02/16 08:57:43;;;;;;;;;;;;;;;10.95;100.00;101050.69;5053333;28;19925;-78
2024/02/16 09:00:09;;;;;;;;;;;;;;;10.98;100.00;101054.09;5050443;28;20276;-78
2024/02/16 09:02:35;;;;;;;;;;;;;;;11.00;100.00;101062.75;5055730;28;20157;-78
2024/02/16 09:05:00;;;;;;;;;;;;;;;11.01;100.00;101062.69;5047506;28;19927;-78
2024/02/16 09:07:26;;;;;;;;;;;;;;;11.00;100.00;101067.97;5050607;28;19964;-78
2024/02/16 09:09:51;;;;;;;;;;;;;;;10.97;100.00;101075.94;5053414;28;19928;-78
2024/02/16 09:12:16;;;;;;;;;;;;;;;10.95;100.00;101078.63;5082157;28;20262;-77
2024/02/16 09:14:41;;;;;;;;;;;;;;;10.94;100.00;101074.31;5043590;28;20227;-77
2024/02/16 09:17:07;;;;;;;;;;;;;;;10.92;100.00;101078.75;5039723;28;19928;-78
2024/02/16 09:19:32;;;;;;;;;;;;;;;10.89;100.00;101082.34;5050787;28;20337;-78
2024/02/16 09:21:58;;;;;;;;;;;;;;;10.89;100.00;101084.13;5063123;28;19917;-78
2024/02/16 09:24:28;;;;;;;;;;;;;;;10.87;100.00;101093.81;5045947;28;19928;-77
2024/02/16 09:26:53;;;;;;;;;;;;;;;10.86;100.00;101094.69;5040552;28;20235;-78
2024/02/16 09:29:19;;;;;;;;;;;;;;;10.83;100.00;101108.78;5053093;28;19928;-77
2024/02/16 09:31:44;;;;;;;;;;;;;;;10.79;100.00;101109.81;5053240;28;19929;-77
2024/02/16 09:34:09;;;;;;;;;;;;;;;10.79;100.00;101112.44;5071862;28;19932;-77
2024/02/16 09:36:37;;;;;;;;;;;;;;;10.78;100.00;101131.66;5049191;28;20199;-78
2024/02/16 09:39:02;;;;;;;;;;;;;;;10.75;100.00;101126.53;5055553;28;19920;-77
2024/02/16 09:41:28;;;;;;;;;;;;;;;10.78;100.00;101125.59;5081737;28;20118;-78
2024/02/16 09:43:54;;;;;;;;;;;;;;;10.74;100.00;101130.94;5065149;28;19927;-78
2024/02/16 09:46:20;;;;;;;;;;;;;;;10.74;100.00;101137.94;5074962;28;19964;-78
2024/02/16 09:48:48;;;;;;;;;;;;;;;10.71;100.00;101145.91;5078517;28;20451;-79
2024/02/16 09:51:13;;;;;;;;;;;;;;;10.73;100.00;101154.56;5087057;28;20196;-79
2024/02/16 09:53:39;;;;;;;;;;;;;;;10.65;100.00;101167.94;5065808;28;19921;-78
2024/02/16 09:56:10;;;;;;;;;;;;;;;10.63;100.00;101172.38;5076616;28;19921;-79
2024/02/16 09:58:35;;;;;;;;;;;;;;;10.62;100.00;101178.50;5076427;28;19942;-78
2024/02/16 10:01:02;;;;;;;;;;;;;;;10.60;100.00;101185.56;5071331;28;19943;-79
2024/02/16 10:03:29;;;;;;;;;;;;;;;10.55;100.00;101185.75;5063367;28;20205;-79
2024/02/16 10:06:04;;;;;;;;;;;;;;;10.59;100.00;101201.34;5062251;28;19921;-79
2024/02/16 10:08:30;;;;;;;;;;;;;;;10.50;100.00;101203.38;5072050;28;20001;-80
2024/02/16 10:11:04;;;;;;;;;;;;;;;10.43;100.00;101221.97;5046000;28;19984;-79
2024/02/16 10:13:30;;;;;;;;;;;;;;;10.36;100.00;101223.94;5086884;28;19931;-80
2024/02/16 10:16:13;;;;;;;;;;;;;;;10.38;100.00;101232.59;5067119;28;20148;-79
2024/02/16 10:18:39;;;;;;;;;;;;;;;10.37;100.00;101236.13;5064223;28;20214;-79
2024/02/16 10:21:04;;;;;;;;;;;;;;;10.32;100.00;101232.81;5073274;28;19966;-79
2024/02/16 10:23:30;;;;;;;;;;;;;;;10.31;100.00;101231.09;5073810;28;20022;-79
2024/02/16 10:25:55;;;;;;;;;;;;;;;10.27;100.00;101242.53;5058958;28;19944;-79
2024/02/16 10:28:27;;;;;;;;;;;;;;;10.27;100.00;101239.94;5075585;28;20377;-79
2024/02/16 10:30:56;;;;;;;;;;;;;;;10.24;100.00;101253.97;5065196;28;19991;-79
2024/02/16 10:33:22;;;;;;;;;;;;;;;10.20;100.00;101262.81;5074207;28;19963;-79
2024/02/16 10:35:48;;;;;;;;;;;;;;;10.22;100.00;101262.78;5070568;28;20155;-79
2024/02/16 10:38:13;;;;;;;;;;;;;;;10.21;100.00;101261.94;5064958;28;19973;-79
2024/02/16 10:40:40;;;;;;;;;;;;;;;10.23;100.00;101273.19;5074385;28;20111;-79
2024/02/16 10:43:05;;;;;;;;;;;;;;;10.23;100.00;101288.06;5057378;28;19920;-79
2024/02/16 10:45:35;;;;;;;;;;;;;;;10.23;100.00;101283.66;5082071;28;19919;-79
2024/02/16 10:48:00;;;;;;;;;;;;;;;10.33;100.00;101290.38;5076338;28;19925;-79
2024/02/16 10:50:26;;;;;;;;;;;;;;;10.36;100.00;101286.78;5044487;28;19995;-79
2024/02/16 10:52:53;;;;;;;;;;;;;;;10.33;100.00;101284.25;5063819;28;19944;-79
2024/02/16 10:55:19;;;;;;;;;;;;;;;10.31;100.00;101280.81;5052302;28;19927;-79
2024/02/16 10:57:44;;;;;;;;;;;;;;;10.31;100.00;101286.06;5081338;28;19920;-79
2024/02/16 11:00:11;;;;;;;;;;;;;;;10.37;100.00;101291.97;5073430;28;19920;-79
2024/02/16 11:02:58;;;;;;;;;;;;;;;10.38;100.00;101301.50;5076991;28;19924;-79
2024/02/16 11:05:42;;;;;;;;;;;;;;;10.39;100.00;101312.88;5084825;28;19931;-79
2024/02/16 11:08:12;;;;;;;;;;;;;;;10.36;100.00;101318.19;5086483;28;20100;-79
2024/02/16 11:10:38;;;;;;;;;;;;;;;10.33;100.00;101324.41;5079366;28;19924;-79
2024/02/16 11:13:08;;;;;;;;;;;;;;;10.38;100.00;101338.16;5090299;28;20030;-79
2024/02/16 11:15:33;;;;;;;;;;;;;;;10.34;100.00;101336.56;5075220;28;19927;-79
2024/02/16 11:18:02;;;;;;;;;;;;;;;10.29;100.00;101340.19;5084741;28;19928;-79
2024/02/16 11:20:27;;;;;;;;;;;;;;;10.30;100.00;101353.25;5067207;28;19921;-79
2024/02/16 11:22:53;;;;;;;;;;;;;;;10.27;100.00;101353.34;5061938;28;20223;-79
2024/02/16 11:25:20;;;;;;;;;;;;;;;10.11;100.00;101360.78;5084834;28;19920;-79
2024/02/16 11:27:46;;;;;;;;;;;;;;;10.26;100.00;101366.47;5075175;28;20239;-78
2024/02/16 11:30:11;;;;;;;;;;;;;;;10.25;100.00;101372.63;5083759;28;19927;-78
2024/02/16 11:32:37;;;;;;;;;;;;;;;10.36;100.00;101367.94;5079313;28;20309;-78
2024/02/16 11:35:08;;;;;;;;;;;;;;;10.44;100.00;101370.31;5061851;28;19950;-78
2024/02/16 11:37:33;;;;;;;;;;;;;;;10.49;100.00;101376.25;5061400;28;19920;-78
2024/02/16 11:39:59;;;;;;;;;;;;;;;10.48;100.00;101383.28;5086314;28;19926;-78
2024/02/16 11:42:24;;;;;;;;;;;;;;;10.53;100.00;101384.00;5052940;28;20123;-78
2024/02/16 11:44:53;;;;;;;;;;;;;;;10.60;100.00;101386.41;5081785;28;19920;-79
2024/02/16 11:47:20;;;;;;;;;;;;;;;10.63;100.00;101395.00;5072948;28;19969;-79
2024/02/16 11:49:46;;;;;;;;;;;;;;;10.54;100.00;101395.31;5074555;28;19973;-79
2024/02/16 11:52:11;;;;;;;;;;;;;;;10.53;100.00;101390.97;5076453;28;20057;-79
2024/02/16 11:54:36;;;;;;;;;;;;;;;10.57;100.00;101400.47;5076465;28;20172;-79
2024/02/16 11:57:02;;;;;;;;;;;;;;;10.64;100.00;101401.09;5078660;28;20112;-79
2024/02/16 11:59:29;;;;;;;;;;;;;;;10.57;100.00;101411.78;5089547;28;19927;-79
2024/02/16 12:01:58;;;;;;;;;;;;;;;10.57;100.00;101403.09;5074086;28;20026;-79
2024/02/16 12:04:33;;;;;;;;;;;;;;;10.61;100.00;101417.78;5066481;28;19965;-79
2024/02/16 12:06:59;;;;;;;;;;;;;;;10.69;100.00;101422.78;5071378;28;20235;-78
2024/02/16 12:09:25;;;;;;;;;;;;;;;10.74;100.00;101408.63;5054597;28;19936;-79
2024/02/16 12:11:50;;;;;;;;;;;;;;;10.73;100.00;101422.63;5072675;28;19924;-79
2024/02/16 12:14:17;;;;;;;;;;;;;;;10.76;100.00;101421.69;5064851;28;19920;-79
2024/02/16 12:16:43;;;;;;;;;;;;;;;10.69;100.00;101428.88;5075903;28;20271;-78
2024/02/16 12:19:10;;;;;;;;;;;;;;;10.72;100.00;101439.25;5076433;28;19987;-79
2024/02/16 12:21:36;;;;;;;;;;;;;;;10.74;100.00;101434.81;5075754;28;19927;-79
2024/02/16 12:24:01;;;;;;;;;;;;;;;10.82;100.00;101441.56;5074406;28;19947;-79
2024/02/16 12:26:26;;;;;;;;;;;;;;;10.78;100.00;101447.84;5074674;28;19923;-79
2024/02/16 12:28:51;;;;;;;;;;;;;;;10.74;100.00;101436.59;5074886;28;19982;-79
2024/02/16 12:31:23;;;;;;;;;;;;;;;10.75;100.00;101451.38;5075157;28;19920;-78
2024/02/16 12:33:48;;;;;;;;;;;;;;;10.71;100.00;101452.41;5067595;28;19960;-78
2024/02/16 12:36:14;;;;;;;;;;;;;;;10.78;100.00;101459.16;5072576;28;19932;-79
2024/02/16 12:38:40;;;;;;;;;;;;;;;10.79;100.00;101463.50;5070685;28;20170;-79
2024/02/16 12:41:05;;;;;;;;;;;;;;;10.83;100.00;101466.88;5070081;28;19920;-79
2024/02/16 12:43:30;;;;;;;;;;;;;;;10.78;100.00;101467.00;5075105;28;19954;-79
2024/02/16 12:45:56;;;;;;;;;;;;;;;10.85;100.00;101472.94;5058528;28;19921;-80
2024/02/16 12:48:21;;;;;;;;;;;;;;;10.77;100.00;101478.41;5062611;28;19925;-79
2024/02/16 12:50:47;;;;;;;;;;;;;;;10.75;100.00;101474.97;5069459;28;19932;-79
2024/02/16 12:53:12;;;;;;;;;;;;;;;10.73;100.00;101482.91;5064939;28;19917;-79
2024/02/16 12:55:38;;;;;;;;;;;;;;;10.68;100.00;101482.19;5048015;28;20177;-79
2024/02/16 12:58:03;;;;;;;;;;;;;;;10.73;100.00;101488.13;5072923;28;20234;-78
2024/02/16 13:00:29;;;;;;;;;;;;;;;10.76;100.00;101497.66;5070697;28;19920;-78
2024/02/16 13:02:54;;;;;;;;;;;;;;;10.82;100.00;101504.47;5057855;28;20193;-78
2024/02/16 13:05:19;;;;;;;;;;;;;;;10.82;100.00;101509.69;5074442;28;19925;-79
2024/02/16 13:07:45;;;;;;;;;;;;;;;10.77;100.00;101507.25;5066381;28;19929;-79
2024/02/16 13:10:10;;;;;;;;;;;;;;;10.84;100.00;101519.25;5061011;28;19931;-79
2024/02/16 13:12:37;;;;;;;;;;;;;;;10.85;100.00;101525.34;5040992;28;19917;-79
2024/02/16 13:15:02;;;;;;;;;;;;;;;10.88;100.00;101520.00;5061743;28;19924;-79
2024/02/16 13:17:28;;;;;;;;;;;;;;;10.88;100.00;101525.25;5070906;28;20056;-78
2024/02/16 13:19:53;;;;;;;;;;;;;;;10.88;100.00;101526.09;5068202;28;19921;-79
2024/02/16 13:22:19;;;;;;;;;;;;;;;10.94;100.00;101525.91;5061472;28;19924;-79
2024/02/16 13:24:45;;;;;;;;;;;;;;;10.97;100.00;101534.56;5061130;28;19924;-78
2024/02/16 13:27:10;;;;;;;;;;;;;;;11.02;100.00;101536.13;5059939;28;19924;-79
2024/02/16 13:29:35;;;;;;;;;;;;;;;11.03;100.00;101529.16;5054746;28;19931;-79
2024/02/16 13:32:01;;;;;;;;;;;;;;;11.05;100.00;101529.97;5058788;28;19952;-79
2024/02/16 13:34:27;;;;;;;;;;;;;;;11.10;100.00;101535.91;5071035;28;19924;-79
2024/02/16 13:36:52;;;;;;;;;;;;;;;11.11;100.00;101541.13;5072052;28;19991;-79
2024/02/16 13:39:19;;;;;;;;;;;;;;;11.14;100.00;101542.78;5069697;28;20223;-78
2024/02/16 13:41:46;;;;;;;;;;;;;;;11.16;100.00;101546.19;5061656;28;20302;-79
2024/02/16 13:44:11;;;;;;;;;;;;;;;11.20;100.00;101546.97;5066293;28;20220;-79
2024/02/16 13:46:36;;;;;;;;;;;;;;;11.22;100.00;101550.38;5037829;28;19925;-79
2024/02/16 13:49:02;;;;;;;;;;;;;;;11.23;100.00;101565.22;5057331;28;19978;-80
2024/02/16 13:51:27;;;;;;;;;;;;;;;11.24;100.00;101553.81;5042430;28;19920;-80
2024/02/16 13:53:52;;;;;;;;;;;;;;;11.26;100.00;101559.84;5066780;28;19920;-80
2024/02/16 13:56:18;;;;;;;;;;;;;;;11.27;100.00;101558.97;5051417;28;20235;-77
2024/02/16 13:58:43;;;;;;;;;;;;;;;11.25;100.00;101566.03;5068833;28;20118;-80
2024/02/16 14:01:08;;;;;;;;;;;;;;;11.22;100.00;101572.22;5062245;28;19962;-78
2024/02/16 14:03:34;;;;;;;;;;;;;;;11.19;100.00;101571.44;5070764;28;20211;-77
2024/02/16 14:06:00;;;;;;;;;;;;;;;11.20;100.00;101579.25;5066519;28;20288;-79
2024/02/16 14:08:26;;;;;;;;;;;;;;;11.19;100.00;101579.31;5066833;28;19947;-80
2024/02/16 14:10:51;;;;;;;;;;;;;;;11.19;100.00;101585.44;5051090;28;19946;-80
2024/02/16 14:13:17;;;;;;;;;;;;;;;11.19;100.00;101585.44;5068430;28;20011;-79
2024/02/16 14:15:42;;;;;;;;;;;;;;;11.15;100.00;101594.28;5069039;28;19924;-79
2024/02/16 14:18:07;;;;;;;;;;;;;;;11.14;100.00;101590.81;5066493;28;19944;-80
2024/02/16 14:20:33;;;;;;;;;;;;;;;11.19;100.00;101600.28;5068692;28;19924;-80
2024/02/16 14:22:58;;;;;;;;;;;;;;;11.23;100.00;101599.31;5067522;28;20233;-79
2024/02/16 14:25:25;;;;;;;;;;;;;;;11.21;100.00;101601.13;5064186;28;19925;-79
2024/02/16 14:27:50;;;;;;;;;;;;;;;11.22;100.00;101608.06;5067080;28;20067;-80
2024/02/16 14:30:15;;;;;;;;;;;;;;;11.24;100.00;101603.63;5068447;28;19927;-78
2024/02/16 14:32:41;;;;;;;;;;;;;;;11.24;100.00;101607.13;5068044;28;20008;-80
2024/02/16 14:35:07;;;;;;;;;;;;;;;11.24;100.00;101609.75;5068713;28;20190;-77
2024/02/16 14:37:32;;;;;;;;;;;;;;;11.27;100.00;101620.13;5068066;28;20045;-78
2024/02/16 14:39:59;;;;;;;;;;;;;;;11.31;100.00;101620.88;5066421;28;20270;-80